Time;durP1;ratioP1;P1;durP2;ratioP2;P2;SDS_P1;SDS_P2;PMS_P1;PMS_P2;Temp;Humidity;BMP_temperature;BMP_pressure;BME280_temperature;BME280_humidity;BME280_pressure;Samples;Min_cycle;Max_cycle;Signal;HPM_P1;HPM_P2
2023/12/05 07:52:10;;;;;;;21.02;11.23;;;;;;;4.16;100.00;101105.59;4932641;29;20066;-70
2023/12/05 07:54:36;;;;;;;23.17;12.23;;;;;;;4.08;100.00;101099.94;4954378;29;20051;-69
2023/12/05 07:57:03;;;;;;;24.60;12.43;;;;;;;4.19;100.00;101114.38;4955920;29;20379;-70
2023/12/05 07:59:28;;;;;;;24.75;13.27;;;;;;;4.14;100.00;101119.97;4955750;29;20024;-69
2023/12/05 08:01:54;;;;;;;25.83;13.45;;;;;;;4.13;100.00;101107.97;4906159;29;20066;-69
2023/12/05 08:04:19;;;;;;;29.58;14.48;;;;;;;4.12;100.00;101117.28;4955725;29;20501;-70
2023/12/05 08:06:45;;;;;;;25.30;12.65;;;;;;;4.08;100.00;101124.63;4906192;29;20489;-70
2023/12/05 08:09:10;;;;;;;23.73;13.05;;;;;;;4.08;100.00;101127.19;4955886;29;20023;-70
2023/12/05 08:11:36;;;;;;;25.95;13.20;;;;;;;4.02;100.00;101128.47;4955750;29;20031;-69
2023/12/05 08:14:02;;;;;;;30.00;14.00;;;;;;;3.92;100.00;101120.03;4955589;29;20050;-69
2023/12/05 08:16:27;;;;;;;22.48;12.70;;;;;;;3.98;100.00;101123.03;4905877;29;20729;-70
2023/12/05 08:18:53;;;;;;;34.85;13.88;;;;;;;3.88;100.00;101101.03;4955361;29;20035;-70
2023/12/05 08:21:18;;;;;;;25.63;11.95;;;;;;;3.92;100.00;101113.25;4955728;29;20179;-69
2023/12/05 08:23:44;;;;;;;22.00;11.25;;;;;;;3.89;100.00;101124.13;4954850;29;20031;-69
2023/12/05 08:26:10;;;;;;;23.67;13.27;;;;;;;3.75;100.00;101129.91;4949283;29;20023;-69
2023/12/05 08:28:37;;;;;;;25.63;14.55;;;;;;;3.63;100.00;101127.28;4936460;29;20031;-70
2023/12/05 08:31:03;;;;;;;27.92;13.68;;;;;;;3.30;100.00;101049.97;4955302;29;20406;-69
2023/12/05 08:33:28;;;;;;;25.80;13.13;;;;;;;3.79;100.00;101123.31;4955159;29;20033;-70
2023/12/05 08:35:54;;;;;;;24.75;12.32;;;;;;;3.57;100.00;101114.06;4942560;29;20039;-70
2023/12/05 08:38:20;;;;;;;28.00;14.57;;;;;;;3.57;100.00;101116.63;4935849;29;20486;-70
2023/12/05 08:40:46;;;;;;;34.03;16.13;;;;;;;3.52;100.00;101120.50;4949623;29;20118;-69
2023/12/05 08:43:11;;;;;;;29.52;14.48;;;;;;;3.39;100.00;101111.91;4955325;29;20110;-70
2023/12/05 08:45:37;;;;;;;25.95;14.10;;;;;;;3.51;100.00;101113.59;4955050;29;20051;-69
2023/12/05 08:48:02;;;;;;;30.35;15.20;;;;;;;3.49;100.00;101100.72;4954119;28;20031;-70
2023/12/05 08:50:28;;;;;;;28.85;13.82;;;;;;;3.51;100.00;101108.50;4955088;29;20039;-70
2023/12/05 08:52:53;;;;;;;23.42;12.82;;;;;;;3.59;100.00;101098.84;4951754;29;20055;-70
2023/12/05 08:55:20;;;;;;;23.90;13.60;;;;;;;3.59;100.00;101091.19;4954989;29;20066;-70
2023/12/05 08:57:45;;;;;;;24.30;13.68;;;;;;;3.65;100.00;101092.56;4955002;29;20035;-70
2023/12/05 09:00:11;;;;;;;24.75;14.27;;;;;;;3.11;100.00;100983.00;4954764;29;20043;-70
2023/12/05 09:02:37;;;;;;;28.00;13.85;;;;;;;3.27;100.00;100987.59;4950438;29;20066;-70
2023/12/05 09:05:03;;;;;;;27.02;13.10;;;;;;;3.78;100.00;101052.63;4954637;29;20078;-70
2023/12/05 09:07:30;;;;;;;24.40;13.63;;;;;;;3.96;100.00;101063.28;4954242;29;20043;-70
2023/12/05 09:09:55;;;;;;;22.13;13.35;;;;;;;4.04;100.00;101067.28;4954573;29;20042;-70
2023/12/05 09:12:21;;;;;;;27.40;13.93;;;;;;;4.08;100.00;101060.75;4920605;29;20498;-70
2023/12/05 09:14:47;;;;;;;26.52;14.90;;;;;;;4.11;100.00;101058.41;4954347;29;20118;-70
2023/12/05 09:17:14;;;;;;;25.63;13.70;;;;;;;4.15;100.00;101057.81;4954401;29;20114;-70
2023/12/05 09:19:40;;;;;;;27.15;13.82;;;;;;;4.17;100.00;101058.84;4954340;29;20055;-70
2023/12/05 09:22:05;;;;;;;27.98;13.63;;;;;;;4.17;100.00;101053.72;4954047;29;20070;-70
2023/12/05 09:24:31;;;;;;;24.02;13.10;;;;;;;4.16;100.00;101057.97;4904285;29;20054;-70
2023/12/05 09:26:56;;;;;;;20.63;12.13;;;;;;;4.07;100.00;101053.84;4954063;29;20118;-69
2023/12/05 09:29:22;;;;;;;25.45;13.95;;;;;;;4.01;100.00;101047.53;4953994;29;20090;-70
2023/12/05 09:31:47;;;;;;;24.30;13.45;;;;;;;3.98;100.00;101048.97;4953995;29;20485;-69
2023/12/05 09:34:14;;;;;;;27.58;16.27;;;;;;;3.97;100.00;101044.63;4904134;29;20101;-70
2023/12/05 09:36:39;;;;;;;26.58;15.60;;;;;;;3.96;100.00;101046.31;4936762;29;20409;-70
2023/12/05 09:39:05;;;;;;;26.65;13.77;;;;;;;3.87;100.00;101020.06;4953902;29;20031;-70
2023/12/05 09:41:37;;;;;;;25.65;14.48;;;;;;;4.00;100.00;101032.97;4919872;29;20047;-69
2023/12/05 09:44:04;;;;;;;27.23;14.25;;;;;;;3.98;100.00;101008.97;4953713;29;20485;-69
2023/12/05 09:46:35;;;;;;;29.60;15.80;;;;;;;4.13;100.00;101021.06;4953684;29;20507;-69
2023/12/05 09:49:08;;;;;;;26.33;14.63;;;;;;;4.15;100.00;101025.50;4953857;29;20459;-69
2023/12/05 09:51:35;;;;;;;23.75;13.88;;;;;;;4.22;100.00;101006.38;4953685;29;20035;-69
2023/12/05 09:54:02;;;;;;;21.90;13.40;;;;;;;4.11;100.00;100971.50;4953782;29;20531;-70
2023/12/05 09:56:28;;;;;;;24.17;12.18;;;;;;;4.32;100.00;100998.56;4953462;29;20478;-70
2023/12/05 09:58:54;;;;;;;24.05;12.52;;;;;;;4.42;100.00;101001.81;4953619;28;20039;-69
2023/12/05 10:01:23;;;;;;;20.35;11.88;;;;;;;3.93;100.00;100899.59;4953554;29;20054;-69
2023/12/05 10:04:11;;;;;;;17.95;10.65;;;;;;;4.48;100.00;100989.44;4893960;29;20277;-69
2023/12/05 10:06:37;;;;;;;28.45;17.63;;;;;;;4.51;100.00;100987.09;4893945;29;20048;-69
2023/12/05 10:09:06;;;;;;;30.98;15.13;;;;;;;4.53;100.00;100980.41;4893920;29;20103;-69
2023/12/05 10:11:35;;;;;;;21.57;13.10;;;;;;;4.56;100.00;100978.09;4863380;29;20044;-70
2023/12/05 10:14:02;;;;;;;19.25;11.00;;;;;;;4.49;100.00;100947.75;4893825;29;20305;-69
2023/12/05 10:16:28;;;;;;;20.85;11.63;;;;;;;4.61;100.00;100945.16;4893572;29;20048;-69
2023/12/05 10:18:53;;;;;;;17.67;10.48;;;;;;;4.58;100.00;100932.16;4893982;29;20120;-70
2023/12/05 10:21:22;;;;;;;21.30;12.20;;;;;;;4.68;100.00;100938.00;4891248;29;20045;-70
2023/12/05 10:23:49;;;;;;;21.90;11.90;;;;;;;4.76;100.00;100930.88;4884931;29;20460;-70
2023/12/05 10:26:14;;;;;;;23.63;12.52;;;;;;;4.79;100.00;100925.94;4886555;29;20036;-70
2023/12/05 10:28:53;;;;;;;21.38;11.27;;;;;;;4.88;100.00;100918.00;4893666;29;20100;-69
2023/12/05 10:31:18;;;;;;;24.52;12.60;;;;;;;4.90;100.00;100912.97;4893583;29;20494;-70
2023/12/05 10:33:45;;;;;;;27.75;13.23;;;;;;;5.01;100.00;100923.16;4893595;29;20039;-69
2023/12/05 10:36:12;;;;;;;25.13;13.27;;;;;;;5.06;100.00;100904.66;4893109;29;20050;-70
2023/12/05 10:38:41;;;;;;;34.80;13.88;;;;;;;5.14;100.00;100909.47;4892191;29;20124;-70
2023/12/05 10:41:06;;;;;;;32.42;15.00;;;;;;;4.79;100.00;100850.88;4909521;29;20051;-70
2023/12/05 10:43:32;;;;;;;23.80;12.63;;;;;;;4.75;100.00;100844.69;4952690;29;20459;-69
2023/12/05 10:45:57;;;;;;;29.17;13.07;;;;;;;5.16;100.00;100918.16;4952505;29;20039;-69
2023/12/05 10:48:23;;;;;;;23.25;12.90;;;;;;;5.18;100.00;100910.56;4952538;29;20078;-69
2023/12/05 10:50:51;;;;;;;25.50;12.90;;;;;;;4.99;100.00;100882.91;4952559;29;20023;-69
2023/12/05 10:53:17;;;;;;;25.30;14.02;;;;;;;5.12;100.00;100905.06;4934317;29;20061;-70
2023/12/05 10:55:43;;;;;;;25.33;13.90;;;;;;;5.14;100.00;100900.94;4949697;29;20195;-70
2023/12/05 10:58:09;;;;;;;27.95;13.65;;;;;;;5.14;100.00;100893.25;4951902;29;20051;-69
2023/12/05 11:00:39;;;;;;;22.48;13.60;;;;;;;5.18;100.00;100892.66;4952413;29;20119;-69
2023/12/05 11:03:05;;;;;;;24.85;12.80;;;;;;;5.04;100.00;100866.16;4952375;29;20486;-70
2023/12/05 11:05:32;;;;;;;20.38;11.13;;;;;;;5.17;100.00;100881.53;4950053;29;20479;-69
2023/12/05 11:07:58;;;;;;;22.60;11.70;;;;;;;5.14;100.00;100881.34;4952069;29;20035;-69
2023/12/05 11:10:28;;;;;;;20.60;11.55;;;;;;;5.16;100.00;100869.53;4952393;29;20409;-68
2023/12/05 11:12:55;;;;;;;25.67;12.02;;;;;;;4.78;100.00;100796.25;4951284;29;20027;-69
2023/12/05 11:15:42;;;;;;;23.85;11.45;;;;;;;5.28;100.00;100872.00;4928546;29;20044;-69
2023/12/05 11:18:34;;;;;;;22.65;11.38;;;;;;;5.30;100.00;100867.84;4941975;29;20563;-68
2023/12/05 11:21:21;;;;;;;23.35;11.23;;;;;;;5.24;100.00;100875.13;4892702;29;20048;-68
2023/12/05 11:27:16;;;;;;;24.55;12.30;;;;;;;5.32;100.00;100856.06;4892611;29;20088;-70
2023/12/05 11:30:18;;;;;;;22.55;12.45;;;;;;;5.23;100.00;100846.91;4887834;29;20514;-70
2023/12/05 11:32:53;;;;;;;21.50;12.85;;;;;;;5.28;100.00;100851.53;4886992;29;20518;-70
2023/12/05 11:35:35;;;;;;;22.45;11.82;;;;;;;5.30;100.00;100849.94;4880238;29;20037;-69
2023/12/05 11:38:17;;;;;;;23.65;13.30;;;;;;;4.94;100.00;100771.69;4892381;29;20045;-69
2023/12/05 11:40:42;;;;;;;26.42;13.80;;;;;;;5.17;100.00;100798.75;4881534;29;20051;-69
2023/12/05 11:43:12;;;;;;;25.20;15.38;;;;;;;5.39;100.00;100826.59;4892115;29;20032;-69
2023/12/05 11:45:39;;;;;;;;;;;;;;;5.37;100.00;100815.41;4892510;29;20045;-70
2023/12/05 11:48:05;;;;;;;30.38;14.82;;;;;;;5.22;100.00;100781.13;4890186;29;20376;-69
2023/12/05 11:50:50;;;;;;;24.60;13.30;;;;;;;5.41;100.00;100806.19;4866697;29;20045;-69
2023/12/05 11:53:18;;;;;;;26.75;11.65;;;;;;;5.45;100.00;100797.94;4867015;29;20756;-69
2023/12/05 11:55:47;;;;;;;20.88;10.63;;;;;;;5.59;100.00;100817.59;4891112;29;20055;-70
2023/12/05 11:58:32;;;;;;;21.50;10.97;;;;;;;5.58;100.00;100809.84;4914984;29;20123;-69
2023/12/05 12:01:09;;;;;;;18.80;10.38;;;;;;;5.66;100.00;100803.53;4948822;29;20270;-70
2023/12/05 12:03:47;;;;;;;17.85;10.57;;;;;;;5.46;100.00;100772.44;4951518;29;20027;-71
2023/12/05 12:06:18;;;;;;;34.15;19.02;;;;;;;5.51;100.00;100782.97;4951683;29;20039;-70
2023/12/05 12:08:48;;;;;;;24.23;14.32;;;;;;;5.69;100.00;100813.94;4950624;29;20051;-70
2023/12/05 12:11:13;;;;;;;20.23;11.30;;;;;;;5.69;100.00;100802.81;4951008;29;20477;-70
2023/12/05 12:13:39;;;;;;;22.25;9.77;;;;;;;5.76;100.00;100813.53;4949631;29;20098;-70
2023/12/05 12:16:04;;;;;;;18.67;10.45;;;;;;;5.60;100.00;100783.53;4951316;29;20425;-70
2023/12/05 12:18:30;;;;;;;17.42;10.75;;;;;;;5.69;100.00;100798.56;4950859;29;20070;-70
2023/12/05 12:20:56;;;;;;;18.55;11.40;;;;;;;5.62;100.00;100784.50;4950016;29;20421;-70
2023/12/05 12:23:22;;;;;;;20.45;10.45;;;;;;;5.58;100.00;100791.91;4951883;28;20103;-70
2023/12/05 12:25:53;;;;;;;18.13;9.43;;;;;;;5.62;100.00;100792.19;4954504;29;20522;-70
2023/12/05 12:28:28;;;;;;;18.90;10.27;;;;;;;5.50;100.00;100792.31;4951295;29;20035;-68
2023/12/05 12:30:58;;;;;;;20.02;10.52;;;;;;;5.45;100.00;100788.56;4953599;29;20106;-70
2023/12/05 12:33:46;;;;;;;22.25;12.07;;;;;;;5.13;100.00;100733.66;4948564;29;20066;-71
2023/12/05 12:36:12;;;;;;;23.50;13.13;;;;;;;5.38;100.00;100782.97;4952956;29;20481;-68
2023/12/05 12:38:38;;;;;;;26.45;13.65;;;;;;;5.43;100.00;100805.53;4952458;29;20659;-70
2023/12/05 12:41:04;;;;;;;22.80;11.10;;;;;;;5.08;100.00;100781.13;4954333;29;20126;-70
2023/12/05 12:43:30;;;;;;;27.98;12.48;;;;;;;4.97;100.00;100769.31;4954621;29;20106;-69
2023/12/05 12:45:59;;;;;;;36.03;12.77;;;;;;;5.17;100.00;100791.97;4943184;29;20111;-69
2023/12/05 12:48:26;;;;;;;20.88;11.70;;;;;;;5.14;100.00;100776.41;4935391;29;20522;-70
2023/12/05 12:50:53;;;;;;;22.23;10.55;;;;;;;5.24;100.00;100777.00;4946550;28;20040;-75
2023/12/05 12:53:18;;;;;;;19.83;11.45;;;;;;;5.25;100.00;100779.66;4954845;29;20055;-73
2023/12/05 12:55:44;;;;;;;21.13;10.68;;;;;;;5.17;100.00;100758.69;4954864;29;20042;-69
2023/12/05 12:58:09;;;;;;;18.58;12.02;;;;;;;5.24;100.00;100770.19;4937784;29;20118;-67
2023/12/05 13:00:36;;;;;;;26.13;11.75;;;;;;;5.24;100.00;100783.00;4954657;29;20031;-69
2023/12/05 13:03:02;;;;;;;19.88;10.57;;;;;;;5.21;100.00;100772.56;4954700;29;20056;-67
2023/12/05 13:05:33;;;;;;;22.52;11.93;;;;;;;5.35;100.00;100781.13;4954749;29;20035;-69
2023/12/05 13:08:00;;;;;;;24.33;11.43;;;;;;;5.39;100.00;100777.06;4954698;29;20110;-69
2023/12/05 13:10:27;;;;;;;21.10;10.65;;;;;;;5.37;100.00;100789.78;4954482;29;20481;-69
2023/12/05 13:12:52;;;;;;;22.60;11.05;;;;;;;5.30;100.00;100785.94;4953207;29;20480;-70
2023/12/05 13:15:28;;;;;;;19.83;10.18;;;;;;;5.15;100.00;100783.28;4960514;28;20114;-70
2023/12/05 13:18:02;;;;;;;19.58;10.68;;;;;;;5.00;100.00;100764.41;4951650;28;20039;-70
2023/12/05 13:20:29;;;;;;;17.52;11.07;;;;;;;5.08;100.00;100796.47;4954260;29;20028;-70
2023/12/05 13:22:56;;;;;;;18.05;10.25;;;;;;;5.11;100.00;100796.69;4954367;29;20024;-69
2023/12/05 13:25:24;;;;;;;23.88;12.10;;;;;;;4.61;100.00;100707.31;4954280;29;20035;-69
2023/12/05 13:27:51;;;;;;;19.65;11.38;;;;;;;4.67;100.00;100706.06;4954254;29;20059;-70
2023/12/05 13:30:20;;;;;;;18.45;9.95;;;;;;;5.22;100.00;100788.81;4954431;29;20069;-68
2023/12/05 13:32:46;;;;;;;18.30;11.50;;;;;;;5.17;100.00;100770.59;4952836;29;20324;-68
2023/12/05 13:35:13;;;;;;;17.77;11.73;;;;;;;5.27;100.00;100788.31;4953462;28;20122;-68
2023/12/05 13:37:39;;;;;;;18.63;11.82;;;;;;;5.23;100.00;100776.09;4954168;29;20504;-68
2023/12/05 13:40:06;;;;;;;23.15;13.07;;;;;;;5.13;100.00;100748.16;4952044;29;20032;-70
2023/12/05 13:42:52;;;;;;;23.45;13.55;;;;;;;5.39;100.00;100774.53;4900400;29;20569;-70
2023/12/05 13:45:18;;;;;;;21.00;11.75;;;;;;;5.44;100.00;100771.44;4913535;29;20033;-70
2023/12/05 13:47:44;;;;;;;22.85;12.93;;;;;;;5.48;100.00;100758.06;4913671;29;20048;-70
2023/12/05 13:50:10;;;;;;;21.52;12.60;;;;;;;5.41;100.00;100742.19;4913453;29;20514;-70
2023/12/05 13:52:56;;;;;;;24.17;12.82;;;;;;;5.43;100.00;100756.88;4894316;29;20127;-70
2023/12/05 13:55:24;;;;;;;21.92;12.23;;;;;;;5.51;100.00;100767.59;4894378;29;20056;-70
2023/12/05 13:57:50;;;;;;;21.45;12.48;;;;;;;5.49;100.00;100762.34;4894356;29;20070;-68
2023/12/05 14:00:16;;;;;;;21.10;11.38;;;;;;;5.50;100.00;100761.56;4894661;29;20068;-70
2023/12/05 14:02:41;;;;;;;19.08;11.07;;;;;;;5.53;100.00;100752.31;4894183;29;20651;-68
2023/12/05 14:05:08;;;;;;;18.95;12.63;;;;;;;5.51;100.00;100747.13;4894300;29;20040;-70
2023/12/05 14:07:33;;;;;;;18.35;10.98;;;;;;;5.55;100.00;100746.50;4894231;29;20495;-68
2023/12/05 14:10:00;;;;;;;17.60;9.88;;;;;;;5.55;100.00;100743.94;4894302;29;20058;-69
2023/12/05 14:12:26;;;;;;;16.85;10.35;;;;;;;5.61;100.00;100746.88;4880862;29;20032;-69
2023/12/05 14:14:52;;;;;;;16.70;10.27;;;;;;;5.62;100.00;100734.94;4928587;29;20154;-68
2023/12/05 14:17:19;;;;;;;21.40;10.50;;;;;;;5.62;100.00;100723.03;4931840;29;20050;-68
2023/12/05 14:20:06;;;;;;;16.15;9.63;;;;;;;5.68;100.00;100727.63;4894150;29;20045;-73
2023/12/05 14:22:33;;;;;;;25.08;10.85;;;;;;;5.70;100.00;100728.63;4892980;29;20053;-69
2023/12/05 14:24:58;;;;;;;17.25;9.70;;;;;;;5.72;100.00;100732.19;4878201;29;20110;-69
2023/12/05 14:27:24;;;;;;;18.75;11.02;;;;;;;5.73;100.00;100745.84;4893914;29;20068;-69
2023/12/05 14:29:49;;;;;;;18.23;9.90;;;;;;;5.73;100.00;100738.16;4904309;29;20039;-67
2023/12/05 14:32:15;;;;;;;21.38;11.55;;;;;;;5.75;100.00;100737.47;4931633;29;20470;-68
2023/12/05 14:34:41;;;;;;;22.10;10.90;;;;;;;5.74;100.00;100739.94;4931584;29;20043;-68
2023/12/05 14:37:06;;;;;;;19.58;11.57;;;;;;;5.73;100.00;100749.31;4931509;29;20505;-72
2023/12/05 14:39:32;;;;;;;21.35;10.77;;;;;;;5.76;100.00;100734.13;4931564;29;20123;-69
2023/12/05 14:41:57;;;;;;;18.83;10.75;;;;;;;5.67;100.00;100723.34;4931545;29;20175;-67
2023/12/05 14:44:25;;;;;;;18.23;10.50;;;;;;;5.71;100.00;100743.22;4931278;29;20056;-68
2023/12/05 14:46:51;;;;;;;20.63;10.25;;;;;;;5.64;100.00;100741.94;4930476;29;20031;-69
2023/12/05 14:49:17;;;;;;;19.17;11.27;;;;;;;5.61;100.00;100738.31;4931516;29;20098;-69
2023/12/05 14:51:43;;;;;;;17.20;10.13;;;;;;;5.56;100.00;100717.56;4931326;29;20175;-67
2023/12/05 14:54:08;;;;;;;19.50;11.88;;;;;;;5.60;100.00;100736.56;4931106;29;20568;-73
2023/12/05 14:56:34;;;;;;;21.58;12.27;;;;;;;5.59;100.00;100722.84;4934129;29;20039;-69
2023/12/05 14:58:59;;;;;;;16.58;9.82;;;;;;;5.10;100.00;100641.38;4952544;28;20035;-69
2023/12/05 15:01:25;;;;;;;18.77;10.27;;;;;;;5.55;100.00;100725.16;4953054;28;20027;-67
2023/12/05 15:03:50;;;;;;;19.15;10.85;;;;;;;5.37;100.00;100706.97;4952569;28;20035;-68
2023/12/05 15:06:16;;;;;;;18.88;10.57;;;;;;;5.50;100.00;100724.84;4952563;29;20043;-68
2023/12/05 15:08:41;;;;;;;20.13;10.82;;;;;;;5.37;100.00;100705.31;4934345;29;20043;-76
2023/12/05 15:11:07;;;;;;;20.38;10.73;;;;;;;5.37;100.00;100710.41;4952801;29;20096;-69
2023/12/05 15:13:32;;;;;;;21.60;10.75;;;;;;;5.47;100.00;100734.88;4952452;28;20406;-69
2023/12/05 15:15:58;;;;;;;18.35;12.82;;;;;;;5.44;100.00;100739.84;4952455;29;20031;-68
2023/12/05 15:18:24;;;;;;;18.10;10.90;;;;;;;5.47;100.00;100735.78;4952762;28;20058;-69
2023/12/05 15:20:49;;;;;;;17.48;11.48;;;;;;;5.51;100.00;100737.75;4952593;28;20046;-70
2023/12/05 15:23:15;;;;;;;24.73;13.35;;;;;;;4.72;100.00;100587.81;4952714;28;20035;-74
2023/12/05 15:25:41;;;;;;;17.67;11.75;;;;;;;5.45;100.00;100706.63;4952501;29;20047;-69
2023/12/05 15:28:11;;;;;;;20.27;12.52;;;;;;;5.60;100.00;100736.56;4952155;28;20035;-71
2023/12/05 15:30:38;;;;;;;27.65;16.40;;;;;;;5.66;100.00;100737.81;4952267;28;20504;-73
2023/12/05 15:33:03;;;;;;;33.25;17.15;;;;;;;5.22;100.00;100641.25;4952409;28;20038;-69
2023/12/05 15:35:49;;;;;;;19.45;12.00;;;;;;;5.73;100.00;100720.25;4952167;29;20039;-69
2023/12/05 15:38:15;;;;;;;24.95;13.70;;;;;;;5.75;100.00;100726.34;4930600;29;20052;-69
2023/12/05 15:40:41;;;;;;;20.88;14.20;;;;;;;5.76;100.00;100715.31;4930710;29;20040;-69
2023/12/05 15:43:06;;;;;;;22.63;15.93;;;;;;;5.78;100.00;100716.28;4930895;29;20036;-70
2023/12/05 15:45:32;;;;;;;23.48;16.17;;;;;;;5.81;100.00;100721.59;4930888;29;20036;-69
2023/12/05 15:47:57;;;;;;;36.50;23.52;;;;;;;5.37;100.00;100637.84;4930881;29;20099;-69
2023/12/05 15:50:23;;;;;;;31.92;20.08;;;;;;;5.85;100.00;100712.41;4930749;29;20035;-69
2023/12/05 15:52:48;;;;;;;25.17;15.75;;;;;;;5.83;100.00;100715.78;4930535;29;20047;-67
2023/12/05 15:55:14;;;;;;;26.27;15.10;;;;;;;5.41;100.00;100638.13;4930522;29;20118;-69
2023/12/05 15:57:42;;;;;;;21.50;12.90;;;;;;;5.90;100.00;100711.88;4931515;29;20051;-68
2023/12/05 16:00:10;;;;;;;20.67;11.70;;;;;;;5.71;100.00;100678.25;4934311;29;20040;-69
2023/12/05 16:02:35;;;;;;;20.80;12.20;;;;;;;5.41;100.00;100621.84;4902864;29;20525;-69
2023/12/05 16:05:01;;;;;;;29.92;17.08;;;;;;;5.81;100.00;100703.66;4934223;29;20048;-69
2023/12/05 16:07:26;;;;;;;49.17;22.77;;;;;;;5.76;100.00;100685.44;4934197;29;20063;-69
2023/12/05 16:09:52;;;;;;;34.35;19.00;;;;;;;5.90;100.00;100711.00;4950443;29;20477;-69
2023/12/05 16:12:18;;;;;;;23.15;13.93;;;;;;;5.74;100.00;100686.16;4955541;28;20065;-73
2023/12/05 16:14:44;;;;;;;24.33;14.10;;;;;;;5.67;100.00;100683.22;4955685;29;20160;-68
2023/12/05 16:17:11;;;;;;;24.58;14.68;;;;;;;5.73;100.00;100705.78;4955470;29;20042;-69
2023/12/05 16:19:38;;;;;;;27.60;14.75;;;;;;;5.67;100.00;100707.97;4955746;28;20035;-69
2023/12/05 16:22:04;;;;;;;25.67;14.73;;;;;;;5.58;100.00;100690.38;4955568;29;20035;-69
2023/12/05 16:24:29;;;;;;;24.50;14.00;;;;;;;5.64;100.00;100702.63;4955186;28;20097;-69
2023/12/05 16:26:55;;;;;;;28.20;15.25;;;;;;;5.62;100.00;100710.25;4955521;28;20059;-69
2023/12/05 16:29:20;;;;;;;25.75;14.88;;;;;;;5.55;100.00;100700.41;4954126;29;20110;-67
2023/12/05 16:31:46;;;;;;;27.35;15.13;;;;;;;5.61;100.00;100716.16;4955449;28;20027;-69
2023/12/05 16:34:11;;;;;;;27.13;14.57;;;;;;;5.60;100.00;100706.69;4955113;28;20082;-69
2023/12/05 16:36:38;;;;;;;32.28;15.30;;;;;;;5.63;100.00;100721.34;4955561;28;20126;-69
2023/12/05 16:39:03;;;;;;;27.48;15.40;;;;;;;5.67;100.00;100710.53;4955015;28;20496;-69
2023/12/05 16:41:33;;;;;;;29.75;17.05;;;;;;;5.71;100.00;100714.13;4955226;28;20027;-69
2023/12/05 16:43:58;;;;;;;;;;;;;;;5.73;100.00;100698.09;4955485;28;20023;-69
2023/12/05 16:46:25;;;;;;;37.03;22.13;;;;;;;5.75;100.00;100703.28;4955031;29;19917;-71
2023/12/05 16:48:51;;;;;;;36.38;23.00;;;;;;;5.54;100.00;100660.22;4954891;29;20019;-67
2023/12/05 16:51:16;;;;;;;38.38;21.30;;;;;;;5.81;100.00;100698.53;4955180;28;20034;-72
2023/12/05 16:53:42;;;;;;;30.70;18.40;;;;;;;5.75;100.00;100685.38;4965982;28;20097;-69
2023/12/05 16:56:11;;;;;;;33.05;19.23;;;;;;;5.81;100.00;100701.97;4973984;28;20113;-73
2023/12/05 16:58:36;;;;;;;30.38;19.10;;;;;;;5.81;100.00;100701.09;4956714;28;20038;-68
2023/12/05 17:01:02;;;;;;;32.75;17.27;;;;;;;5.41;100.00;100647.47;4974076;28;20023;-69
2023/12/05 17:03:28;;;;;;;33.22;17.58;;;;;;;5.74;100.00;100712.63;4923867;28;20121;-69
2023/12/05 17:05:53;;;;;;;26.95;16.40;;;;;;;5.59;100.00;100686.97;4974068;28;20113;-67
2023/12/05 17:08:19;;;;;;;30.40;17.60;;;;;;;5.28;100.00;100621.16;4939662;28;20046;-67
2023/12/05 17:10:44;;;;;;;28.23;17.35;;;;;;;5.80;100.00;100699.31;4972940;28;20034;-69
2023/12/05 17:13:11;;;;;;;30.33;18.45;;;;;;;5.86;100.00;100704.81;4973743;28;20081;-68
2023/12/05 17:15:36;;;;;;;29.33;17.63;;;;;;;5.90;100.00;100706.75;4973588;28;20122;-71
2023/12/05 17:18:02;;;;;;;33.47;17.92;;;;;;;5.89;100.00;100725.47;4973519;28;20118;-69
2023/12/05 17:20:28;;;;;;;29.40;17.83;;;;;;;5.95;100.00;100710.47;4973510;28;20026;-68
2023/12/05 17:22:53;;;;;;;32.65;18.88;;;;;;;5.92;100.00;100705.19;4973891;28;20051;-70
2023/12/05 17:25:19;;;;;;;34.40;19.33;;;;;;;5.96;100.00;100727.63;4973805;28;20042;-69
2023/12/05 17:27:46;;;;;;;36.28;20.25;;;;;;;5.85;100.00;100726.09;4973376;28;20038;-73
2023/12/05 17:30:12;;;;;;;31.90;18.08;;;;;;;5.88;100.00;100730.53;4973984;28;20034;-69
2023/12/05 17:32:38;;;;;;;35.28;21.20;;;;;;;5.85;100.00;100718.41;4970372;28;20035;-69
2023/12/05 17:35:24;;;;;;;30.48;17.98;;;;;;;5.79;100.00;100716.34;4913284;29;20452;-68
2023/12/05 17:37:49;;;;;;;32.80;17.38;;;;;;;5.81;100.00;100719.03;4913672;29;20058;-69
2023/12/05 17:40:15;;;;;;;33.30;18.00;;;;;;;5.77;100.00;100717.06;4897744;29;20044;-69
2023/12/05 17:42:40;;;;;;;33.35;17.90;;;;;;;5.72;100.00;100714.25;4913614;29;20529;-69
2023/12/05 17:45:06;;;;;;;31.83;17.58;;;;;;;5.73;100.00;100705.78;4913492;29;20094;-71
2023/12/05 17:47:32;;;;;;;32.58;16.98;;;;;;;5.70;100.00;100704.69;4913381;29;20044;-73
2023/12/05 17:50:00;;;;;;;27.13;17.40;;;;;;;5.70;100.00;100708.13;4913158;29;20078;-69
2023/12/05 17:52:29;;;;;;;34.17;18.77;;;;;;;5.64;100.00;100706.06;4900939;29;20440;-71
2023/12/05 17:54:55;;;;;;;35.97;18.13;;;;;;;5.45;100.00;100675.91;4875172;29;20044;-67
2023/12/05 17:57:21;;;;;;;33.33;18.67;;;;;;;5.53;100.00;100680.63;4873344;29;20072;-69
2023/12/05 17:59:50;;;;;;;42.42;19.25;;;;;;;5.62;100.00;100691.41;4878273;29;20080;-69
2023/12/05 18:02:15;;;;;;;38.10;18.85;;;;;;;5.54;100.00;100693.50;4893455;29;20040;-70
2023/12/05 18:04:41;;;;;;;37.25;19.33;;;;;;;5.23;100.00;100648.09;4893747;29;20164;-71
2023/12/05 18:07:07;;;;;;;38.25;20.42;;;;;;;5.31;100.00;100677.63;4936569;29;20047;-70
2023/12/05 18:09:32;;;;;;;48.30;19.55;;;;;;;5.46;100.00;100690.50;4951975;29;20039;-70
2023/12/05 18:11:58;;;;;;;38.60;18.98;;;;;;;5.55;100.00;100689.28;4935356;29;20035;-70
2023/12/05 18:14:24;;;;;;;40.42;19.60;;;;;;;5.55;100.00;100685.03;4903191;29;20045;-70
2023/12/05 18:16:50;;;;;;;39.13;21.38;;;;;;;5.54;100.00;100683.25;4948004;29;20482;-67
2023/12/05 18:19:15;;;;;;;31.50;18.30;;;;;;;5.61;100.00;100684.53;4933520;29;20059;-68
2023/12/05 18:21:41;;;;;;;35.95;18.02;;;;;;;5.64;100.00;100689.84;4933776;29;20032;-71
2023/12/05 18:24:06;;;;;;;34.47;17.95;;;;;;;5.31;100.00;100611.06;4930442;29;20413;-70
2023/12/05 18:26:32;;;;;;;31.77;16.45;;;;;;;5.63;100.00;100680.38;4949164;29;20481;-68
2023/12/05 18:28:58;;;;;;;34.67;17.55;;;;;;;5.70;100.00;100682.53;4952636;29;20035;-71
2023/12/05 18:31:24;;;;;;;37.47;19.13;;;;;;;5.70;100.00;100686.78;4952354;29;20552;-69
2023/12/05 18:33:55;;;;;;;47.30;20.08;;;;;;;5.71;100.00;100685.94;4952676;29;20027;-68
2023/12/05 18:36:21;;;;;;;38.03;19.70;;;;;;;5.73;100.00;100692.97;4952399;29;20089;-69
2023/12/05 18:38:48;;;;;;;41.17;20.25;;;;;;;5.24;100.00;100610.63;4935480;29;20177;-67
2023/12/05 18:41:13;;;;;;;168.98;100.28;;;;;;;5.73;100.00;100695.53;4952625;29;20027;-72
2023/12/05 18:43:42;;;;;;;48.97;25.17;;;;;;;5.79;100.00;100683.06;4952250;29;20035;-70
2023/12/05 18:46:07;;;;;;;60.42;34.35;;;;;;;5.82;100.00;100682.38;4952187;29;20035;-70
2023/12/05 18:48:38;;;;;;;48.35;25.55;;;;;;;5.93;100.00;100668.53;4952552;29;20474;-69
2023/12/05 18:51:04;;;;;;;44.78;21.35;;;;;;;6.14;100.00;100675.72;4919856;29;20194;-69
2023/12/05 18:53:32;;;;;;;38.15;18.88;;;;;;;6.09;100.00;100684.81;4952601;29;20134;-71
2023/12/05 18:55:59;;;;;;;34.80;17.92;;;;;;;6.06;100.00;100670.16;4952023;29;20034;-69
2023/12/05 18:58:27;;;;;;;36.58;17.88;;;;;;;5.99;100.00;100663.78;4950439;29;20522;-68
2023/12/05 19:00:53;;;;;;;37.90;17.23;;;;;;;5.92;100.00;100669.31;4941006;29;20035;-69
2023/12/05 19:03:21;;;;;;;31.85;15.70;;;;;;;5.37;100.00;100584.06;4950050;29;20031;-69
2023/12/05 19:05:46;;;;;;;39.53;17.00;;;;;;;5.04;100.00;100558.22;4941950;28;20421;-69